createdAt,value
2019-03-09T00:00:52.888Z,60.00
2019-03-09T00:03:21.295Z,59.90
2019-03-09T00:05:49.600Z,60.00
2019-03-09T00:08:17.833Z,60.10
2019-03-09T00:10:46.085Z,60.20
2019-03-09T00:13:14.324Z,59.90
2019-03-09T00:15:42.670Z,60.10
2019-03-09T00:18:10.962Z,60.10
2019-03-09T00:20:39.212Z,60.70
2019-03-09T00:30:41.910Z,60.00
2019-03-09T00:33:10.150Z,60.00
2019-03-09T00:35:38.413Z,60.00
2019-03-09T00:38:06.648Z,60.00
2019-03-09T00:40:34.979Z,59.90
2019-03-09T00:43:03.278Z,59.90
2019-03-09T00:45:31.625Z,59.90
2019-03-09T00:47:59.860Z,59.90
2019-03-09T00:50:28.109Z,59.90
2019-03-09T00:52:56.360Z,60.60
2019-03-09T00:55:24.604Z,59.80
2019-03-09T00:57:52.857Z,59.60
2019-03-09T01:00:21.305Z,59.70
2019-03-09T01:02:51.167Z,59.80
2019-03-09T01:05:21.212Z,59.80
2019-03-09T01:07:49.552Z,59.50
2019-03-09T01:10:17.872Z,60.10
2019-03-09T01:12:46.169Z,59.40
2019-03-09T01:15:15.146Z,59.50
2019-03-09T01:17:43.465Z,59.30
2019-03-09T01:20:14.190Z,59.30
2019-03-09T01:22:42.418Z,59.10
2019-03-09T01:25:11.532Z,59.50
2019-03-09T01:27:39.810Z,59.30
2019-03-09T01:30:11.243Z,59.30
2019-03-09T01:32:39.486Z,59.30
2019-03-09T01:35:07.727Z,59.30
2019-03-09T01:37:35.993Z,59.30
2019-03-09T01:40:07.448Z,59.30
2019-03-09T01:42:35.693Z,59.40
2019-03-09T01:45:05.485Z,59.20
2019-03-09T01:47:33.754Z,59.30
2019-03-09T01:50:02.079Z,59.50
2019-03-09T01:52:30.384Z,59.50
2019-03-09T01:54:58.657Z,59.30
2019-03-09T01:57:26.925Z,59.30
2019-03-09T01:59:55.455Z,59.40
2019-03-09T02:02:23.698Z,59.50
2019-03-09T02:04:51.953Z,59.70
2019-03-09T02:07:20.245Z,59.70
2019-03-09T02:09:50.122Z,59.80
2019-03-09T02:12:18.439Z,60.00
2019-03-09T02:14:46.771Z,60.20
2019-03-09T02:17:15.083Z,60.30
2019-03-09T02:19:43.318Z,61.30
2019-03-09T02:22:11.601Z,60.60
2019-03-09T02:24:41.471Z,60.80
2019-03-09T02:27:09.727Z,60.60
2019-03-09T02:29:37.989Z,60.90
2019-03-09T02:32:06.230Z,60.70
2019-03-09T02:34:37.510Z,60.80
2019-03-09T02:37:07.367Z,60.70
2019-03-09T02:39:37.304Z,60.70
2019-03-09T02:42:05.582Z,60.80
2019-03-09T02:44:33.987Z,60.70
2019-03-09T02:47:02.325Z,60.40
2019-03-09T02:49:30.755Z,60.30
2019-03-09T02:51:59.005Z,60.20
2019-03-09T02:54:27.692Z,60.50
2019-03-09T02:56:55.998Z,60.60
2019-03-09T02:59:25.851Z,60.90
2019-03-09T03:02:01.707Z,60.80
2019-03-09T03:04:29.939Z,60.90
2019-03-09T03:06:58.477Z,60.90
2019-03-09T03:09:26.719Z,60.70
2019-03-09T03:11:55.039Z,60.70
2019-03-09T03:14:23.336Z,60.90
2019-03-09T03:16:51.577Z,60.90
2019-03-09T03:19:19.992Z,60.80
2019-03-09T03:21:48.261Z,60.90
2019-03-09T03:24:16.496Z,61.00
2019-03-09T03:26:44.743Z,60.80
2019-03-09T03:29:12.989Z,61.40
2019-03-09T03:31:41.242Z,61.60
2019-03-09T03:34:11.693Z,61.90
2019-03-09T03:36:41.635Z,62.10
2019-03-09T03:39:09.854Z,62.10
2019-03-09T03:41:39.705Z,62.10
2019-03-09T03:44:07.982Z,62.10
2019-03-09T03:46:36.274Z,62.50
2019-03-09T03:49:06.941Z,63.00
2019-03-09T03:51:35.223Z,63.50
2019-03-09T03:54:03.477Z,64.20
2019-03-09T03:56:31.719Z,64.50
2019-03-09T03:58:59.964Z,65.00
2019-03-09T04:01:28.269Z,65.10
2019-03-09T04:03:56.500Z,65.30
2019-03-09T04:06:24.821Z,65.70
2019-03-09T04:08:53.083Z,66.20
2019-03-09T04:11:21.331Z,66.40
2019-03-09T04:13:49.555Z,66.30
2019-03-09T04:16:17.812Z,66.50
2019-03-09T04:18:46.055Z,66.90
2019-03-09T04:21:14.325Z,66.70
2019-03-09T04:23:42.575Z,67.10
2019-03-09T04:26:10.807Z,67.10
2019-03-09T04:28:39.060Z,67.70
2019-03-09T04:31:07.301Z,68.00
2019-03-09T04:33:35.559Z,68.20
2019-03-09T04:36:03.787Z,68.60
2019-03-09T04:38:32.010Z,69.00
2019-03-09T04:41:00.290Z,70.00
2019-03-09T04:43:28.519Z,69.40
2019-03-09T04:45:56.801Z,69.80
2019-03-09T04:48:25.032Z,69.70
2019-03-09T04:50:53.281Z,69.40
2019-03-09T04:53:21.535Z,69.10
2019-03-09T04:55:49.934Z,69.50
2019-03-09T04:58:18.181Z,69.60
2019-03-09T05:00:46.466Z,69.40
2019-03-09T05:03:14.716Z,69.30
2019-03-09T05:05:42.961Z,69.80
2019-03-09T05:08:17.491Z,69.80
2019-03-09T05:10:52.075Z,70.10
2019-03-09T05:13:26.390Z,70.40
2019-03-09T05:15:54.655Z,69.90
2019-03-09T05:18:22.886Z,70.10
2019-03-09T05:20:51.128Z,70.20
2019-03-09T05:23:19.384Z,69.90
2019-03-09T05:25:47.670Z,69.70
2019-03-09T05:28:15.907Z,69.80
2019-03-09T05:30:45.783Z,70.00
2019-03-09T05:33:14.031Z,70.20
2019-03-09T05:35:42.256Z,70.30
2019-03-09T05:38:10.526Z,71.90
2019-03-09T05:40:38.850Z,70.00
2019-03-09T05:43:07.081Z,70.00
2019-03-09T05:45:35.323Z,70.00
2019-03-09T05:48:03.577Z,69.60
2019-03-09T05:50:31.875Z,69.70
2019-03-09T05:53:18.705Z,69.40
2019-03-09T05:55:46.966Z,69.20
2019-03-09T05:58:15.209Z,69.10
2019-03-09T06:00:43.823Z,68.70
2019-03-09T06:03:12.069Z,68.70
2019-03-09T06:05:42.745Z,68.40
2019-03-09T06:08:11.000Z,68.00
2019-03-09T06:10:39.260Z,67.80
2019-03-09T06:13:07.529Z,67.40
2019-03-09T06:15:35.784Z,67.10
2019-03-09T06:18:06.174Z,66.70
2019-03-09T06:20:34.029Z,66.40
2019-03-09T06:23:02.254Z,66.80
2019-03-09T06:25:30.482Z,67.10
2019-03-09T06:27:58.742Z,66.30
2019-03-09T06:30:27.019Z,66.00
2019-03-09T06:33:20.735Z,78.00
2019-03-09T06:35:49.952Z,81.00
2019-03-09T06:38:36.688Z,70.20
2019-03-09T06:41:07.173Z,79.70
2019-03-09T06:43:35.418Z,67.10
2019-03-09T06:46:05.934Z,67.60
2019-03-09T06:48:33.634Z,63.60
2019-03-09T06:51:02.049Z,63.50
2019-03-09T06:53:30.299Z,65.90
2019-03-09T06:55:58.761Z,63.10
2019-03-09T06:58:27.115Z,63.50
2019-03-09T07:00:57.006Z,71.60
2019-03-09T07:03:25.611Z,72.60
2019-03-09T07:05:53.856Z,70.00
2019-03-09T07:08:22.186Z,69.50
2019-03-09T07:10:50.520Z,76.00
2019-03-09T07:13:18.751Z,77.70
2019-03-09T07:15:47.399Z,76.70
2019-03-09T07:18:17.101Z,77.20
2019-03-09T07:20:45.504Z,79.60
2019-03-09T07:23:14.491Z,79.40
2019-03-09T07:25:46.142Z,77.50
2019-03-09T07:28:14.881Z,72.70
2019-03-09T07:30:43.311Z,74.70
2019-03-09T07:33:11.571Z,74.80
2019-03-09T07:35:39.856Z,76.00
2019-03-09T07:38:08.191Z,76.30
2019-03-09T07:40:36.477Z,78.80
2019-03-09T07:43:04.720Z,78.20
2019-03-09T07:45:33.080Z,85.60
2019-03-09T07:48:01.430Z,80.80
2019-03-09T07:50:29.805Z,77.30
2019-03-09T07:52:58.296Z,76.10
2019-03-09T07:55:26.629Z,79.50
2019-03-09T07:58:00.255Z,77.00
2019-03-09T08:00:28.522Z,76.10
2019-03-09T08:02:56.828Z,78.90
2019-03-09T08:05:25.085Z,81.70
2019-03-09T08:07:53.350Z,88.80
2019-03-09T08:10:24.395Z,82.20
2019-03-09T08:12:52.771Z,83.70
2019-03-09T08:15:21.490Z,88.00
2019-03-09T08:17:49.789Z,88.70
2019-03-09T08:20:21.906Z,89.20
2019-03-09T08:22:50.155Z,86.70
2019-03-09T08:25:25.358Z,86.50
2019-03-09T08:27:53.632Z,80.00
2019-03-09T08:30:23.716Z,82.30
2019-03-09T08:32:52.140Z,82.10
2019-03-09T08:35:20.525Z,86.10
2019-03-09T08:37:49.933Z,85.70
2019-03-09T08:40:19.778Z,82.60
2019-03-09T08:42:48.148Z,83.70
2019-03-09T08:45:20.433Z,80.60
2019-03-09T08:47:52.425Z,83.70
2019-03-09T08:50:20.532Z,86.70
2019-03-09T08:52:51.475Z,87.70
2019-03-09T08:55:19.760Z,83.20
2019-03-09T08:57:51.051Z,84.20
2019-03-09T09:00:33.164Z,86.20
2019-03-09T09:03:01.474Z,81.70
2019-03-09T09:05:29.718Z,82.20
2019-03-09T09:07:57.970Z,81.70
2019-03-09T09:10:26.349Z,84.00
2019-03-09T09:12:54.606Z,80.80
2019-03-09T09:15:22.929Z,82.30
2019-03-09T09:17:51.170Z,81.50
2019-03-09T09:20:26.814Z,80.40
2019-03-09T09:22:55.083Z,79.60
2019-03-09T09:25:23.412Z,80.20
2019-03-09T09:27:52.308Z,81.50
2019-03-09T09:30:23.681Z,82.50
2019-03-09T09:32:52.354Z,83.20
2019-03-09T09:35:20.582Z,80.70
2019-03-09T09:37:48.915Z,82.20
2019-03-09T09:40:18.604Z,79.80
2019-03-09T09:42:47.026Z,82.80
2019-03-09T09:45:15.301Z,83.80
2019-03-09T09:47:43.618Z,85.80
2019-03-09T09:50:13.619Z,84.90
2019-03-09T09:52:41.936Z,80.80
2019-03-09T09:55:12.439Z,76.90
2019-03-09T09:57:40.680Z,80.50
2019-03-09T10:00:28.659Z,82.00
2019-03-09T10:02:56.949Z,78.40
2019-03-09T10:05:25.378Z,78.50
2019-03-09T10:07:53.722Z,77.00
2019-03-09T10:10:22.700Z,76.20
2019-03-09T10:12:51.074Z,76.50
2019-03-09T10:15:27.480Z,77.60
2019-03-09T10:17:55.755Z,77.60
2019-03-09T10:20:24.210Z,77.50
2019-03-09T10:23:03.025Z,74.70
2019-03-09T10:25:22.599Z,74.10
2019-03-09T10:27:50.938Z,77.60
2019-03-09T10:30:20.740Z,81.80
2019-03-09T10:32:49.054Z,79.60
2019-03-09T10:35:19.380Z,75.70
2019-03-09T10:37:52.159Z,75.30
2019-03-09T10:40:20.488Z,77.00
2019-03-09T10:42:48.904Z,87.60
2019-03-09T10:45:20.799Z,83.90
2019-03-09T10:47:49.893Z,81.30
2019-03-09T10:50:19.708Z,81.00
2019-03-09T10:52:48.005Z,81.90
2019-03-09T10:55:27.225Z,83.30
2019-03-09T10:57:55.559Z,80.60
2019-03-09T11:00:32.015Z,82.30
2019-03-09T11:03:00.304Z,81.20
2019-03-09T11:05:28.616Z,84.30
2019-03-09T11:07:56.852Z,79.50
2019-03-09T11:10:25.113Z,79.50
2019-03-09T11:12:53.351Z,78.10
2019-03-09T11:15:21.631Z,79.70
2019-03-09T11:17:49.942Z,82.00
2019-03-09T11:20:19.134Z,84.50
2019-03-09T11:22:47.531Z,81.50
2019-03-09T11:25:15.783Z,80.90
2019-03-09T11:27:44.030Z,84.30
2019-03-09T11:30:20.853Z,86.90
2019-03-09T11:32:49.105Z,86.30
2019-03-09T11:35:17.369Z,86.50
2019-03-09T11:37:45.619Z,85.50
2019-03-09T11:40:15.747Z,84.30
2019-03-09T11:42:44.020Z,84.10
2019-03-09T11:45:16.848Z,84.10
2019-03-09T11:47:45.096Z,84.30
2019-03-09T11:50:17.661Z,83.90
2019-03-09T11:52:46.087Z,81.40
2019-03-09T11:55:16.545Z,83.00
2019-03-09T11:57:44.877Z,82.60
2019-03-09T12:00:35.185Z,83.10
2019-03-09T12:03:06.446Z,80.80
2019-03-09T12:05:34.745Z,81.60
2019-03-09T12:08:02.982Z,81.40
2019-03-09T12:10:31.289Z,82.50
2019-03-09T12:12:59.541Z,81.90
2019-03-09T12:15:27.794Z,81.60
2019-03-09T12:17:56.045Z,82.10
2019-03-09T12:20:25.968Z,81.10
2019-03-09T12:23:01.238Z,80.70
2019-03-09T12:25:24.257Z,80.90
2019-03-09T12:27:52.638Z,83.60
2019-03-09T12:30:20.965Z,84.60
2019-03-09T12:32:49.260Z,82.90
2019-03-09T12:35:17.543Z,82.90
2019-03-09T12:37:45.826Z,85.40
2019-03-09T12:42:45.332Z,89.20
2019-03-09T12:45:16.811Z,87.30
2019-03-09T12:47:45.164Z,85.10
2019-03-09T12:50:23.563Z,90.70
2019-03-09T12:52:51.819Z,90.20
2019-03-09T12:55:20.115Z,87.80
2019-03-09T12:57:48.394Z,87.40
2019-03-09T13:00:21.214Z,86.00
2019-03-09T13:02:49.547Z,80.90
2019-03-09T13:05:18.160Z,80.70
2019-03-09T13:07:46.478Z,80.20
2019-03-09T13:10:15.682Z,82.20
2019-03-09T13:12:43.918Z,79.30
2019-03-09T13:15:12.176Z,80.00
2019-03-09T13:17:40.446Z,78.10
2019-03-09T13:20:11.102Z,76.70
2019-03-09T13:22:39.399Z,77.10
2019-03-09T13:25:07.855Z,77.90
2019-03-09T13:27:36.233Z,76.70
2019-03-09T13:30:13.083Z,79.00
2019-03-09T13:32:41.353Z,79.40
2019-03-09T13:35:09.587Z,80.80
2019-03-09T13:37:37.844Z,78.80
2019-03-09T13:40:08.244Z,83.60
2019-03-09T13:42:36.510Z,89.00
2019-03-09T13:45:07.501Z,91.10
2019-03-09T13:47:35.759Z,90.50
2019-03-09T13:50:05.769Z,88.20
2019-03-09T13:52:34.008Z,87.40
2019-03-09T13:55:02.286Z,88.60
2019-03-09T13:57:30.521Z,90.10
2019-03-09T13:59:58.809Z,88.00
2019-03-09T14:02:28.676Z,90.70
2019-03-09T14:04:56.944Z,90.20
2019-03-09T14:07:25.624Z,90.70
2019-03-09T14:09:53.970Z,91.10
2019-03-09T14:12:23.919Z,90.40
2019-03-09T14:14:59.548Z,92.40
2019-03-09T14:17:30.901Z,91.60
2019-03-09T14:19:59.157Z,90.50
2019-03-09T14:22:38.917Z,90.30
2019-03-09T14:25:09.713Z,89.80
2019-03-09T14:27:38.040Z,86.90
2019-03-09T14:30:17.591Z,89.70
2019-03-09T14:32:47.495Z,87.20
2019-03-09T14:35:15.872Z,90.40
2019-03-09T14:37:46.387Z,90.60
2019-03-09T14:40:16.614Z,90.00
2019-03-09T14:42:47.793Z,89.80
2019-03-09T14:45:19.942Z,90.30
2019-03-09T14:47:48.223Z,89.60
2019-03-09T14:50:25.884Z,90.00
2019-03-09T14:53:11.089Z,89.40
2019-03-09T14:55:39.658Z,90.40
2019-03-09T14:58:08.058Z,89.70
2019-03-09T15:00:36.465Z,90.00
2019-03-09T15:03:04.802Z,89.60
2019-03-09T15:05:41.630Z,88.80
2019-03-09T15:08:10.022Z,86.80
2019-03-09T15:10:38.402Z,89.00
2019-03-09T15:13:06.872Z,88.30
2019-03-09T15:15:35.221Z,88.10
2019-03-09T15:18:03.602Z,87.80
2019-03-09T15:20:31.958Z,88.40
2019-03-09T15:23:00.282Z,90.10
2019-03-09T15:25:32.921Z,88.20
2019-03-09T15:28:01.230Z,88.50
2019-03-09T15:30:29.564Z,90.00
2019-03-09T15:32:57.952Z,88.40
2019-03-09T15:35:26.380Z,87.90
2019-03-09T15:37:54.672Z,89.50
2019-03-09T15:40:25.747Z,90.00
2019-03-09T15:42:54.953Z,92.20
2019-03-09T15:45:23.276Z,91.90
2019-03-09T15:47:51.560Z,91.70
2019-03-09T15:50:21.048Z,91.60
2019-03-09T15:52:49.436Z,90.60
2019-03-09T15:55:17.849Z,86.30
2019-03-09T15:57:46.244Z,87.80
2019-03-09T16:00:22.220Z,86.30
2019-03-09T16:02:50.461Z,84.60
2019-03-09T16:05:18.869Z,87.30
2019-03-09T16:07:47.356Z,90.20
2019-03-09T16:10:22.940Z,90.00
2019-03-09T16:12:51.207Z,94.90
2019-03-09T16:15:19.560Z,88.20
2019-03-09T16:17:47.940Z,87.60
2019-03-09T16:20:19.527Z,89.50
2019-03-09T16:22:47.887Z,88.20
2019-03-09T16:25:16.343Z,88.40
2019-03-09T16:27:44.663Z,85.40
2019-03-09T16:30:23.032Z,84.40
2019-03-09T16:32:51.358Z,83.80
2019-03-09T16:35:19.641Z,88.10
2019-03-09T16:37:49.045Z,87.00
2019-03-09T16:40:19.050Z,85.20
2019-03-09T16:42:47.363Z,86.90
2019-03-09T16:45:15.666Z,87.10
2019-03-09T16:47:43.948Z,89.10
2019-03-09T16:50:14.203Z,87.70
2019-03-09T16:52:42.466Z,91.70
2019-03-09T16:55:11.103Z,91.70
2019-03-09T16:57:39.394Z,92.40
2019-03-09T17:00:21.859Z,91.60
2019-03-09T17:02:50.242Z,91.50
2019-03-09T17:05:18.713Z,90.90
2019-03-09T17:07:47.018Z,91.80
2019-03-09T17:10:18.740Z,90.80
2019-03-09T17:12:46.213Z,90.70
2019-03-09T17:15:17.025Z,91.40
2019-03-09T17:17:45.337Z,90.80
2019-03-09T17:20:15.380Z,90.70
2019-03-09T17:22:43.777Z,91.60
2019-03-09T17:25:12.025Z,91.50
2019-03-09T17:27:47.964Z,91.30
2019-03-09T17:30:17.819Z,91.50
2019-03-09T17:32:46.147Z,91.10
2019-03-09T17:35:14.412Z,92.00
2019-03-09T17:37:42.959Z,91.90
2019-03-09T17:40:13.103Z,91.40
2019-03-09T17:42:41.471Z,91.00
2019-03-09T17:45:21.286Z,90.80
2019-03-09T17:47:49.660Z,90.50
2019-03-09T17:50:17.950Z,90.80
2019-03-09T17:52:46.178Z,90.80
2019-03-09T17:55:14.440Z,90.90
2019-03-09T17:57:42.786Z,90.80
2019-03-09T18:00:23.259Z,90.50
2019-03-09T18:02:51.521Z,90.20
2019-03-09T18:05:20.144Z,90.80
2019-03-09T18:07:48.583Z,90.20
2019-03-09T18:10:32.187Z,91.20
2019-03-09T18:13:00.432Z,91.90
2019-03-09T18:15:28.752Z,92.60
2019-03-09T18:17:56.979Z,92.10
2019-03-09T18:20:25.299Z,92.00
2019-03-09T18:22:53.565Z,91.90
2019-03-09T18:25:21.884Z,91.70
2019-03-09T18:27:50.252Z,93.30
2019-03-09T18:30:18.547Z,93.20
2019-03-09T18:32:46.841Z,92.70
2019-03-09T18:35:15.080Z,93.80
2019-03-09T18:37:43.344Z,94.30
2019-03-09T18:40:16.328Z,93.40
2019-03-09T18:42:44.625Z,93.30
2019-03-09T18:45:21.599Z,92.70
2019-03-09T18:47:49.956Z,93.00
2019-03-09T18:50:18.296Z,93.80
2019-03-09T18:52:47.001Z,93.20
2019-03-09T18:55:15.317Z,93.50
2019-03-09T18:57:43.571Z,92.40
2019-03-09T19:00:19.082Z,92.40
2019-03-09T19:02:47.341Z,92.40
2019-03-09T19:05:15.600Z,93.00
2019-03-09T19:07:43.860Z,92.10
2019-03-09T19:10:20.229Z,92.50
2019-03-09T19:12:48.493Z,92.90
2019-03-09T19:15:17.768Z,91.50
2019-03-09T19:17:46.028Z,91.20
2019-03-09T19:20:18.307Z,90.50
2019-03-09T19:22:46.576Z,91.70
2019-03-09T19:25:15.274Z,90.60
2019-03-09T19:27:43.603Z,90.40
2019-03-09T19:30:19.160Z,91.10
2019-03-09T19:32:47.507Z,90.30
2019-03-09T19:35:15.776Z,90.30
2019-03-09T19:37:44.054Z,89.60
2019-03-09T19:40:14.414Z,88.90
2019-03-09T19:42:42.666Z,89.20
2019-03-09T19:45:13.729Z,87.00
2019-03-09T19:47:41.959Z,85.70
2019-03-09T19:50:12.674Z,84.40
2019-03-09T19:52:40.931Z,83.30
2019-03-09T19:55:09.456Z,83.80
2019-03-09T19:57:37.692Z,82.90
2019-03-09T20:00:11.480Z,82.30
2019-03-09T20:02:39.745Z,81.80
2019-03-09T20:05:09.429Z,81.00
2019-03-09T20:07:37.732Z,80.70
2019-03-09T20:10:12.066Z,81.70
2019-03-09T20:12:40.300Z,79.00
2019-03-09T20:15:11.843Z,79.20
2019-03-09T20:17:40.122Z,80.20
2019-03-09T20:20:10.906Z,79.60
2019-03-09T20:22:39.162Z,78.80
2019-03-09T20:25:08.758Z,78.50
2019-03-09T20:27:37.093Z,76.80
2019-03-09T20:30:11.307Z,77.10
2019-03-09T20:32:39.565Z,76.20
2019-03-09T20:35:08.468Z,76.70
2019-03-09T20:37:36.771Z,76.40
2019-03-09T20:40:16.329Z,76.00
2019-03-09T20:42:44.587Z,75.00
2019-03-09T20:45:14.888Z,75.10
2019-03-09T20:47:43.212Z,75.30
2019-03-09T20:50:14.251Z,75.50
2019-03-09T20:52:42.525Z,75.60
2019-03-09T20:55:10.767Z,76.40
2019-03-09T20:57:39.017Z,75.60
2019-03-09T21:00:12.796Z,76.60
2019-03-09T21:02:41.036Z,75.20
2019-03-09T21:05:09.384Z,75.60
2019-03-09T21:07:37.614Z,76.50
2019-03-09T21:10:09.277Z,75.80
2019-03-09T21:12:37.535Z,75.70
2019-03-09T21:15:06.346Z,76.00
2019-03-09T21:17:34.691Z,76.30
2019-03-09T21:20:02.943Z,77.20
2019-03-09T21:22:31.256Z,76.10
2019-03-09T21:24:59.655Z,76.50
2019-03-09T21:27:27.910Z,76.10
2019-03-09T21:29:56.177Z,76.50
2019-03-09T21:32:24.451Z,76.40
2019-03-09T21:34:52.769Z,76.40
2019-03-09T21:37:21.028Z,77.00
2019-03-09T21:39:49.298Z,76.90
2019-03-09T21:42:17.531Z,75.90
2019-03-09T21:44:45.825Z,76.40
2019-03-09T21:47:14.068Z,76.20
2019-03-09T21:49:42.328Z,77.10
2019-03-09T21:52:10.599Z,77.00
2019-03-09T21:54:38.862Z,78.10
2019-03-09T21:57:07.159Z,76.90
2019-03-09T21:59:35.420Z,76.90
2019-03-09T22:02:03.961Z,76.70
2019-03-09T22:04:32.226Z,77.40
2019-03-09T22:07:00.467Z,77.20
2019-03-09T22:09:28.740Z,77.00
2019-03-09T22:11:56.991Z,77.70
2019-03-09T22:14:25.285Z,77.60
2019-03-09T22:16:56.903Z,77.80
2019-03-09T22:19:23.498Z,77.50
2019-03-09T22:21:51.743Z,77.50
2019-03-09T22:24:20.093Z,77.60
2019-03-09T22:26:48.351Z,78.50
2019-03-09T22:29:16.591Z,78.70
2019-03-09T22:31:44.920Z,78.10
2019-03-09T22:34:13.194Z,78.40
2019-03-09T22:36:41.543Z,78.90
2019-03-09T22:39:09.790Z,78.50
2019-03-09T22:41:38.091Z,78.30
2019-03-09T22:44:06.402Z,79.80
2019-03-09T22:46:34.640Z,79.70
2019-03-09T22:49:02.953Z,79.80
2019-03-09T22:51:31.324Z,79.10
2019-03-09T22:53:59.564Z,79.90
2019-03-09T22:56:27.993Z,79.20
2019-03-09T22:58:56.244Z,79.20
2019-03-09T23:01:24.532Z,79.10
2019-03-09T23:03:52.882Z,79.10
2019-03-09T23:06:21.213Z,79.20
2019-03-09T23:08:49.482Z,79.30
2019-03-09T23:11:17.840Z,79.30
2019-03-09T23:13:46.098Z,80.10
2019-03-09T23:16:14.339Z,79.20
2019-03-09T23:18:42.659Z,79.30
2019-03-09T23:21:10.898Z,79.90
2019-03-09T23:23:39.190Z,80.20
2019-03-09T23:26:07.550Z,80.70
2019-03-09T23:28:44.103Z,80.70
2019-03-09T23:31:12.396Z,78.90
2019-03-09T23:33:40.650Z,80.70
2019-03-09T23:36:08.910Z,79.30
2019-03-09T23:38:37.156Z,79.30
2019-03-09T23:41:05.402Z,79.50
2019-03-09T23:43:33.658Z,79.20
2019-03-09T23:46:01.903Z,79.80
2019-03-09T23:48:30.175Z,80.80
2019-03-09T23:50:58.489Z,79.20
2019-03-09T23:53:26.749Z,79.30
2019-03-09T23:55:55.025Z,79.00
2019-03-09T23:58:23.268Z,79.70
